sensor_id;sensor_type;location;lat;lon;timestamp;temperature;humidity
33931;DHT22;20215;53.130;6.408;2022-11-15T00:01:49;13.40;88.00
33931;DHT22;20215;53.130;6.408;2022-11-15T00:04:14;13.40;88.10
33931;DHT22;20215;53.130;6.408;2022-11-15T00:06:40;13.40;87.90
33931;DHT22;20215;53.130;6.408;2022-11-15T00:09:06;13.40;88.00
33931;DHT22;20215;53.130;6.408;2022-11-15T00:11:31;13.40;88.10
33931;DHT22;20215;53.130;6.408;2022-11-15T00:13:58;13.40;88.10
33931;DHT22;20215;53.130;6.408;2022-11-15T00:16:24;13.40;88.10
33931;DHT22;20215;53.130;6.408;2022-11-15T00:18:50;13.40;88.30
33931;DHT22;20215;53.130;6.408;2022-11-15T00:21:16;13.40;88.30
33931;DHT22;20215;53.130;6.408;2022-11-15T00:23:42;13.40;88.30
33931;DHT22;20215;53.130;6.408;2022-11-15T00:26:14;13.40;88.30
33931;DHT22;20215;53.130;6.408;2022-11-15T00:28:40;13.40;88.30
33931;DHT22;20215;53.130;6.408;2022-11-15T00:31:13;13.40;88.30
33931;DHT22;20215;53.130;6.408;2022-11-15T00:33:39;13.40;88.30
33931;DHT22;20215;53.130;6.408;2022-11-15T00:36:07;13.40;88.40
33931;DHT22;20215;53.130;6.408;2022-11-15T00:38:35;13.30;88.20
33931;DHT22;20215;53.130;6.408;2022-11-15T00:41:02;13.30;88.40
33931;DHT22;20215;53.130;6.408;2022-11-15T00:43:28;13.30;88.30
33931;DHT22;20215;53.130;6.408;2022-11-15T00:45:53;13.30;88.30
33931;DHT22;20215;53.130;6.408;2022-11-15T00:48:19;13.30;88.30
33931;DHT22;20215;53.130;6.408;2022-11-15T00:50:45;13.30;88.40
33931;DHT22;20215;53.130;6.408;2022-11-15T00:53:10;13.30;88.30
33931;DHT22;20215;53.130;6.408;2022-11-15T00:55:36;13.30;88.30
33931;DHT22;20215;53.130;6.408;2022-11-15T00:58:02;13.30;88.30
33931;DHT22;20215;53.130;6.408;2022-11-15T01:00:27;13.30;88.30
33931;DHT22;20215;53.130;6.408;2022-11-15T01:02:53;13.40;88.30
33931;DHT22;20215;53.130;6.408;2022-11-15T01:05:19;13.40;88.30
33931;DHT22;20215;53.130;6.408;2022-11-15T01:07:44;13.30;88.30
33931;DHT22;20215;53.130;6.408;2022-11-15T01:10:10;13.40;88.40
33931;DHT22;20215;53.130;6.408;2022-11-15T01:12:36;13.30;88.40
33931;DHT22;20215;53.130;6.408;2022-11-15T01:15:02;13.30;88.30
33931;DHT22;20215;53.130;6.408;2022-11-15T01:17:27;13.30;88.40
33931;DHT22;20215;53.130;6.408;2022-11-15T01:19:53;13.30;88.40
33931;DHT22;20215;53.130;6.408;2022-11-15T01:22:19;13.30;88.50
33931;DHT22;20215;53.130;6.408;2022-11-15T01:24:44;13.30;88.40
33931;DHT22;20215;53.130;6.408;2022-11-15T01:27:10;13.30;88.40
33931;DHT22;20215;53.130;6.408;2022-11-15T01:29:36;13.30;88.40
33931;DHT22;20215;53.130;6.408;2022-11-15T01:32:01;13.40;88.30
33931;DHT22;20215;53.130;6.408;2022-11-15T01:34:27;13.30;88.30
33931;DHT22;20215;53.130;6.408;2022-11-15T01:36:53;13.30;88.30
33931;DHT22;20215;53.130;6.408;2022-11-15T01:39:18;13.30;88.80
33931;DHT22;20215;53.130;6.408;2022-11-15T01:41:44;13.30;88.20
33931;DHT22;20215;53.130;6.408;2022-11-15T01:44:40;13.30;88.20
33931;DHT22;20215;53.130;6.408;2022-11-15T01:47:19;13.30;88.10
33931;DHT22;20215;53.130;6.408;2022-11-15T01:50:00;13.30;88.30
33931;DHT22;20215;53.130;6.408;2022-11-15T01:52:28;13.40;88.20
33931;DHT22;20215;53.130;6.408;2022-11-15T01:57:32;13.30;88.30
33931;DHT22;20215;53.130;6.408;2022-11-15T02:00:00;13.30;88.40
33931;DHT22;20215;53.130;6.408;2022-11-15T02:02:26;13.30;88.60
33931;DHT22;20215;53.130;6.408;2022-11-15T02:04:51;13.30;88.60
33931;DHT22;20215;53.130;6.408;2022-11-15T02:07:19;13.30;88.50
33931;DHT22;20215;53.130;6.408;2022-11-15T02:09:46;13.30;88.50
33931;DHT22;20215;53.130;6.408;2022-11-15T02:12:14;13.30;88.50
33931;DHT22;20215;53.130;6.408;2022-11-15T02:14:42;13.30;88.30
33931;DHT22;20215;53.130;6.408;2022-11-15T02:20:26;13.30;88.30
33931;DHT22;20215;53.130;6.408;2022-11-15T02:25:57;13.30;88.30
33931;DHT22;20215;53.130;6.408;2022-11-15T02:28:58;13.30;88.50
33931;DHT22;20215;53.130;6.408;2022-11-15T02:31:45;13.30;88.50
33931;DHT22;20215;53.130;6.408;2022-11-15T02:34:25;13.30;88.40
33931;DHT22;20215;53.130;6.408;2022-11-15T02:37:03;13.30;88.60
33931;DHT22;20215;53.130;6.408;2022-11-15T02:40:02;13.30;88.50
33931;DHT22;20215;53.130;6.408;2022-11-15T02:42:35;13.20;88.70
33931;DHT22;20215;53.130;6.408;2022-11-15T02:45:28;13.30;88.80
33931;DHT22;20215;53.130;6.408;2022-11-15T02:47:57;13.30;88.80
33931;DHT22;20215;53.130;6.408;2022-11-15T02:50:27;13.30;89.00
33931;DHT22;20215;53.130;6.408;2022-11-15T02:52:53;13.20;88.80
33931;DHT22;20215;53.130;6.408;2022-11-15T02:55:31;13.20;88.70
33931;DHT22;20215;53.130;6.408;2022-11-15T02:58:07;13.30;89.00
33931;DHT22;20215;53.130;6.408;2022-11-15T03:00:43;13.30;88.70
33931;DHT22;20215;53.130;6.408;2022-11-15T03:03:30;13.30;88.70
33931;DHT22;20215;53.130;6.408;2022-11-15T03:06:32;13.30;88.60
33931;DHT22;20215;53.130;6.408;2022-11-15T03:09:23;13.30;88.60
33931;DHT22;20215;53.130;6.408;2022-11-15T03:12:01;13.30;88.70
33931;DHT22;20215;53.130;6.408;2022-11-15T03:14:33;13.20;88.70
33931;DHT22;20215;53.130;6.408;2022-11-15T03:19:41;13.20;88.60
33931;DHT22;20215;53.130;6.408;2022-11-15T03:22:11;13.20;88.60
33931;DHT22;20215;53.130;6.408;2022-11-15T03:24:38;13.20;88.70
33931;DHT22;20215;53.130;6.408;2022-11-15T03:27:06;13.30;88.70
33931;DHT22;20215;53.130;6.408;2022-11-15T03:29:39;13.30;88.80
33931;DHT22;20215;53.130;6.408;2022-11-15T03:32:15;13.20;88.70
33931;DHT22;20215;53.130;6.408;2022-11-15T03:34:47;13.20;88.70
33931;DHT22;20215;53.130;6.408;2022-11-15T03:37:15;13.30;88.80
33931;DHT22;20215;53.130;6.408;2022-11-15T03:39:42;13.30;88.80
33931;DHT22;20215;53.130;6.408;2022-11-15T03:47:40;13.30;88.60
33931;DHT22;20215;53.130;6.408;2022-11-15T03:50:13;13.30;88.90
33931;DHT22;20215;53.130;6.408;2022-11-15T03:52:41;13.20;89.20
33931;DHT22;20215;53.130;6.408;2022-11-15T03:55:11;13.30;88.80
33931;DHT22;20215;53.130;6.408;2022-11-15T03:57:38;13.30;88.70
33931;DHT22;20215;53.130;6.408;2022-11-15T04:00:04;13.30;88.70
33931;DHT22;20215;53.130;6.408;2022-11-15T04:02:30;13.30;88.80
33931;DHT22;20215;53.130;6.408;2022-11-15T04:04:55;13.30;88.70
33931;DHT22;20215;53.130;6.408;2022-11-15T04:07:21;13.30;88.80
33931;DHT22;20215;53.130;6.408;2022-11-15T04:09:47;13.30;88.70
33931;DHT22;20215;53.130;6.408;2022-11-15T04:12:29;13.30;88.80
33931;DHT22;20215;53.130;6.408;2022-11-15T04:17:44;13.30;88.80
33931;DHT22;20215;53.130;6.408;2022-11-15T04:20:19;13.30;88.90
33931;DHT22;20215;53.130;6.408;2022-11-15T04:23:06;13.30;89.00
33931;DHT22;20215;53.130;6.408;2022-11-15T04:25:52;13.30;89.00
33931;DHT22;20215;53.130;6.408;2022-11-15T04:28:18;13.30;89.00
33931;DHT22;20215;53.130;6.408;2022-11-15T04:30:44;13.20;89.00
33931;DHT22;20215;53.130;6.408;2022-11-15T04:33:09;13.30;88.90
33931;DHT22;20215;53.130;6.408;2022-11-15T04:35:35;13.30;89.00
33931;DHT22;20215;53.130;6.408;2022-11-15T04:38:01;13.30;89.00
33931;DHT22;20215;53.130;6.408;2022-11-15T04:40:27;13.30;89.10
33931;DHT22;20215;53.130;6.408;2022-11-15T04:42:53;13.30;89.10
33931;DHT22;20215;53.130;6.408;2022-11-15T04:45:19;13.30;89.10
33931;DHT22;20215;53.130;6.408;2022-11-15T04:47:45;13.30;89.10
33931;DHT22;20215;53.130;6.408;2022-11-15T04:50:11;13.30;89.30
33931;DHT22;20215;53.130;6.408;2022-11-15T04:52:41;13.30;89.20
33931;DHT22;20215;53.130;6.408;2022-11-15T04:55:08;13.30;89.30
33931;DHT22;20215;53.130;6.408;2022-11-15T04:57:34;13.30;89.30
33931;DHT22;20215;53.130;6.408;2022-11-15T05:00:01;13.30;89.30
33931;DHT22;20215;53.130;6.408;2022-11-15T05:02:27;13.30;89.30
33931;DHT22;20215;53.130;6.408;2022-11-15T05:05:13;13.30;89.40
33931;DHT22;20215;53.130;6.408;2022-11-15T05:07:39;13.30;89.30
33931;DHT22;20215;53.130;6.408;2022-11-15T05:10:04;13.30;89.30
33931;DHT22;20215;53.130;6.408;2022-11-15T05:12:30;13.30;89.40
33931;DHT22;20215;53.130;6.408;2022-11-15T05:14:56;13.30;89.30
33931;DHT22;20215;53.130;6.408;2022-11-15T05:17:21;13.30;89.40
33931;DHT22;20215;53.130;6.408;2022-11-15T05:19:47;13.30;89.60
33931;DHT22;20215;53.130;6.408;2022-11-15T05:22:12;13.30;89.70
33931;DHT22;20215;53.130;6.408;2022-11-15T05:24:38;13.40;89.70
33931;DHT22;20215;53.130;6.408;2022-11-15T05:27:03;13.40;89.80
33931;DHT22;20215;53.130;6.408;2022-11-15T05:29:29;13.40;90.00
33931;DHT22;20215;53.130;6.408;2022-11-15T05:31:54;13.30;89.90
33931;DHT22;20215;53.130;6.408;2022-11-15T05:34:20;13.40;89.90
33931;DHT22;20215;53.130;6.408;2022-11-15T05:36:48;13.30;89.90
33931;DHT22;20215;53.130;6.408;2022-11-15T05:39:14;13.40;90.00
33931;DHT22;20215;53.130;6.408;2022-11-15T05:41:43;13.40;90.00
33931;DHT22;20215;53.130;6.408;2022-11-15T05:44:11;13.40;90.00
33931;DHT22;20215;53.130;6.408;2022-11-15T05:46:40;13.40;90.00
33931;DHT22;20215;53.130;6.408;2022-11-15T05:49:10;13.40;90.00
33931;DHT22;20215;53.130;6.408;2022-11-15T05:51:38;13.40;90.00
33931;DHT22;20215;53.130;6.408;2022-11-15T05:54:05;13.40;90.00
33931;DHT22;20215;53.130;6.408;2022-11-15T05:56:31;13.40;90.00
33931;DHT22;20215;53.130;6.408;2022-11-15T05:58:58;13.40;89.90
33931;DHT22;20215;53.130;6.408;2022-11-15T06:01:26;13.40;89.80
33931;DHT22;20215;53.130;6.408;2022-11-15T06:03:52;13.40;89.70
33931;DHT22;20215;53.130;6.408;2022-11-15T06:06:17;13.40;89.70
33931;DHT22;20215;53.130;6.408;2022-11-15T06:08:43;13.40;90.10
33931;DHT22;20215;53.130;6.408;2022-11-15T06:11:09;13.40;89.90
33931;DHT22;20215;53.130;6.408;2022-11-15T06:13:34;13.40;89.90
33931;DHT22;20215;53.130;6.408;2022-11-15T06:16:00;13.40;89.80
33931;DHT22;20215;53.130;6.408;2022-11-15T06:18:26;13.40;89.80
33931;DHT22;20215;53.130;6.408;2022-11-15T06:20:52;13.40;89.80
33931;DHT22;20215;53.130;6.408;2022-11-15T06:23:17;13.40;89.80
33931;DHT22;20215;53.130;6.408;2022-11-15T06:25:43;13.40;89.80
33931;DHT22;20215;53.130;6.408;2022-11-15T06:28:09;13.40;89.80
33931;DHT22;20215;53.130;6.408;2022-11-15T06:30:34;13.40;89.80
33931;DHT22;20215;53.130;6.408;2022-11-15T06:33:01;13.40;89.80
33931;DHT22;20215;53.130;6.408;2022-11-15T06:35:28;13.40;89.90
33931;DHT22;20215;53.130;6.408;2022-11-15T06:37:54;13.50;89.90
33931;DHT22;20215;53.130;6.408;2022-11-15T06:40:19;13.40;89.90
33931;DHT22;20215;53.130;6.408;2022-11-15T06:42:45;13.40;89.70
33931;DHT22;20215;53.130;6.408;2022-11-15T06:45:11;13.40;89.70
33931;DHT22;20215;53.130;6.408;2022-11-15T06:47:47;13.50;89.70
33931;DHT22;20215;53.130;6.408;2022-11-15T06:50:13;13.50;89.60
33931;DHT22;20215;53.130;6.408;2022-11-15T06:52:39;13.40;89.60
33931;DHT22;20215;53.130;6.408;2022-11-15T06:55:05;13.40;89.60
33931;DHT22;20215;53.130;6.408;2022-11-15T06:57:30;13.50;89.60
33931;DHT22;20215;53.130;6.408;2022-11-15T06:59:57;13.40;89.70
33931;DHT22;20215;53.130;6.408;2022-11-15T07:02:23;13.40;89.70
33931;DHT22;20215;53.130;6.408;2022-11-15T07:04:48;13.50;89.70
33931;DHT22;20215;53.130;6.408;2022-11-15T07:07:14;13.40;89.80
33931;DHT22;20215;53.130;6.408;2022-11-15T07:09:39;13.50;89.80
33931;DHT22;20215;53.130;6.408;2022-11-15T07:12:05;13.50;89.80
33931;DHT22;20215;53.130;6.408;2022-11-15T07:14:31;13.50;89.80
33931;DHT22;20215;53.130;6.408;2022-11-15T07:16:56;13.50;89.90
33931;DHT22;20215;53.130;6.408;2022-11-15T07:19:22;13.40;89.80
33931;DHT22;20215;53.130;6.408;2022-11-15T07:21:47;13.50;90.10
33931;DHT22;20215;53.130;6.408;2022-11-15T07:24:13;13.50;90.00
33931;DHT22;20215;53.130;6.408;2022-11-15T07:26:39;13.50;89.80
33931;DHT22;20215;53.130;6.408;2022-11-15T07:29:04;13.50;89.80
33931;DHT22;20215;53.130;6.408;2022-11-15T07:31:30;13.50;89.80
33931;DHT22;20215;53.130;6.408;2022-11-15T07:33:56;13.50;89.70
33931;DHT22;20215;53.130;6.408;2022-11-15T07:36:22;13.50;89.80
33931;DHT22;20215;53.130;6.408;2022-11-15T07:38:47;13.50;89.80
33931;DHT22;20215;53.130;6.408;2022-11-15T07:41:13;13.50;89.80
33931;DHT22;20215;53.130;6.408;2022-11-15T07:43:38;13.50;90.00
33931;DHT22;20215;53.130;6.408;2022-11-15T07:46:06;13.50;89.90
33931;DHT22;20215;53.130;6.408;2022-11-15T07:48:38;13.50;89.80
33931;DHT22;20215;53.130;6.408;2022-11-15T07:51:06;13.50;89.90
33931;DHT22;20215;53.130;6.408;2022-11-15T07:53:31;13.50;90.00
33931;DHT22;20215;53.130;6.408;2022-11-15T07:55:57;13.50;90.00
33931;DHT22;20215;53.130;6.408;2022-11-15T07:58:22;13.50;90.10
33931;DHT22;20215;53.130;6.408;2022-11-15T08:00:48;13.50;90.00
33931;DHT22;20215;53.130;6.408;2022-11-15T08:03:15;13.50;90.00
33931;DHT22;20215;53.130;6.408;2022-11-15T08:05:42;13.60;90.00
33931;DHT22;20215;53.130;6.408;2022-11-15T08:08:10;13.50;90.00
33931;DHT22;20215;53.130;6.408;2022-11-15T08:10:36;13.60;90.00
33931;DHT22;20215;53.130;6.408;2022-11-15T08:13:05;13.60;90.00
33931;DHT22;20215;53.130;6.408;2022-11-15T08:15:31;13.60;90.10
33931;DHT22;20215;53.130;6.408;2022-11-15T08:17:59;13.50;90.00
33931;DHT22;20215;53.130;6.408;2022-11-15T08:20:26;13.60;90.00
33931;DHT22;20215;53.130;6.408;2022-11-15T08:22:55;13.60;90.00
33931;DHT22;20215;53.130;6.408;2022-11-15T08:25:21;13.60;90.00
33931;DHT22;20215;53.130;6.408;2022-11-15T08:27:47;13.60;90.00
33931;DHT22;20215;53.130;6.408;2022-11-15T08:30:12;13.60;90.00
33931;DHT22;20215;53.130;6.408;2022-11-15T08:32:39;13.60;90.10
33931;DHT22;20215;53.130;6.408;2022-11-15T08:35:05;13.60;90.00
33931;DHT22;20215;53.130;6.408;2022-11-15T08:37:31;13.60;90.00
33931;DHT22;20215;53.130;6.408;2022-11-15T08:39:56;13.60;90.10
33931;DHT22;20215;53.130;6.408;2022-11-15T08:42:22;13.70;90.10
33931;DHT22;20215;53.130;6.408;2022-11-15T08:44:47;13.60;90.20
33931;DHT22;20215;53.130;6.408;2022-11-15T08:47:13;13.60;90.10
33931;DHT22;20215;53.130;6.408;2022-11-15T08:49:39;13.60;90.20
33931;DHT22;20215;53.130;6.408;2022-11-15T08:52:05;13.70;90.20
33931;DHT22;20215;53.130;6.408;2022-11-15T08:54:30;13.60;90.10
33931;DHT22;20215;53.130;6.408;2022-11-15T08:56:57;13.60;90.10
33931;DHT22;20215;53.130;6.408;2022-11-15T08:59:22;13.70;90.20
33931;DHT22;20215;53.130;6.408;2022-11-15T09:01:48;13.70;90.10
33931;DHT22;20215;53.130;6.408;2022-11-15T09:04:13;13.70;90.10
33931;DHT22;20215;53.130;6.408;2022-11-15T09:06:39;13.80;90.10
33931;DHT22;20215;53.130;6.408;2022-11-15T09:09:05;13.70;90.10
33931;DHT22;20215;53.130;6.408;2022-11-15T09:11:30;13.70;90.10
33931;DHT22;20215;53.130;6.408;2022-11-15T09:13:56;13.70;90.10
33931;DHT22;20215;53.130;6.408;2022-11-15T09:16:22;13.70;90.10
33931;DHT22;20215;53.130;6.408;2022-11-15T09:18:47;13.70;90.20
33931;DHT22;20215;53.130;6.408;2022-11-15T09:21:13;13.70;90.20
33931;DHT22;20215;53.130;6.408;2022-11-15T09:23:39;13.70;90.30
33931;DHT22;20215;53.130;6.408;2022-11-15T09:26:05;13.80;90.30
33931;DHT22;20215;53.130;6.408;2022-11-15T09:28:31;13.80;90.40
33931;DHT22;20215;53.130;6.408;2022-11-15T09:30:59;13.80;90.30
33931;DHT22;20215;53.130;6.408;2022-11-15T09:33:25;13.80;90.40
33931;DHT22;20215;53.130;6.408;2022-11-15T09:35:51;13.80;90.40
33931;DHT22;20215;53.130;6.408;2022-11-15T09:38:17;13.80;90.60
33931;DHT22;20215;53.130;6.408;2022-11-15T09:40:42;13.80;90.30
33931;DHT22;20215;53.130;6.408;2022-11-15T09:43:35;13.80;90.20
33931;DHT22;20215;53.130;6.408;2022-11-15T09:48:57;13.80;90.20
33931;DHT22;20215;53.130;6.408;2022-11-15T09:51:31;13.80;90.20
33931;DHT22;20215;53.130;6.408;2022-11-15T09:56:47;13.80;90.40
33931;DHT22;20215;53.130;6.408;2022-11-15T10:04:21;13.80;90.30
33931;DHT22;20215;53.130;6.408;2022-11-15T10:07:01;13.80;90.30
33931;DHT22;20215;53.130;6.408;2022-11-15T10:09:56;13.90;90.30
33931;DHT22;20215;53.130;6.408;2022-11-15T10:12:25;13.90;90.40
33931;DHT22;20215;53.130;6.408;2022-11-15T10:15:05;13.90;90.40
33931;DHT22;20215;53.130;6.408;2022-11-15T10:20:28;13.90;90.40
33931;DHT22;20215;53.130;6.408;2022-11-15T10:22:58;13.90;90.40
33931;DHT22;20215;53.130;6.408;2022-11-15T10:25:26;13.90;90.40
33931;DHT22;20215;53.130;6.408;2022-11-15T10:30:47;13.90;90.30
33931;DHT22;20215;53.130;6.408;2022-11-15T10:33:37;13.90;90.40
33931;DHT22;20215;53.130;6.408;2022-11-15T10:39:00;14.00;90.30
33931;DHT22;20215;53.130;6.408;2022-11-15T10:44:22;14.00;90.30
33931;DHT22;20215;53.130;6.408;2022-11-15T10:49:21;14.00;90.60
33931;DHT22;20215;53.130;6.408;2022-11-15T10:52:01;14.00;90.70
33931;DHT22;20215;53.130;6.408;2022-11-15T10:54:48;14.00;90.50
33931;DHT22;20215;53.130;6.408;2022-11-15T10:57:18;14.00;90.60
33931;DHT22;20215;53.130;6.408;2022-11-15T10:59:56;14.00;90.50
33931;DHT22;20215;53.130;6.408;2022-11-15T11:04:53;14.00;90.50
33931;DHT22;20215;53.130;6.408;2022-11-15T11:07:24;14.00;90.60
33931;DHT22;20215;53.130;6.408;2022-11-15T11:09:58;14.00;90.50
33931;DHT22;20215;53.130;6.408;2022-11-15T11:12:30;14.10;90.50
33931;DHT22;20215;53.130;6.408;2022-11-15T11:14:58;14.10;90.40
33931;DHT22;20215;53.130;6.408;2022-11-15T11:20:37;14.10;90.40
33931;DHT22;20215;53.130;6.408;2022-11-15T11:23:28;14.10;90.50
33931;DHT22;20215;53.130;6.408;2022-11-15T11:37:33;14.20;90.60
33931;DHT22;20215;53.130;6.408;2022-11-15T11:42:58;14.20;90.50
33931;DHT22;20215;53.130;6.408;2022-11-15T11:48:13;14.20;90.60
33931;DHT22;20215;53.130;6.408;2022-11-15T11:50:41;14.30;90.70
33931;DHT22;20215;53.130;6.408;2022-11-15T11:53:35;14.30;90.70
33931;DHT22;20215;53.130;6.408;2022-11-15T11:56:21;14.30;90.60
33931;DHT22;20215;53.130;6.408;2022-11-15T11:58:48;14.30;90.90
33931;DHT22;20215;53.130;6.408;2022-11-15T12:01:39;14.30;90.70
33931;DHT22;20215;53.130;6.408;2022-11-15T12:04:19;14.30;90.60
33931;DHT22;20215;53.130;6.408;2022-11-15T12:06:56;14.40;90.70
33931;DHT22;20215;53.130;6.408;2022-11-15T12:09:48;14.30;90.60
33931;DHT22;20215;53.130;6.408;2022-11-15T12:12:38;14.30;90.60
33931;DHT22;20215;53.130;6.408;2022-11-15T12:15:41;14.40;90.50
33931;DHT22;20215;53.130;6.408;2022-11-15T12:18:12;14.40;90.50
33931;DHT22;20215;53.130;6.408;2022-11-15T12:20:49;14.40;90.60
33931;DHT22;20215;53.130;6.408;2022-11-15T12:23:32;14.40;90.50
33931;DHT22;20215;53.130;6.408;2022-11-15T12:26:19;14.40;90.50
33931;DHT22;20215;53.130;6.408;2022-11-15T12:28:54;14.40;90.60
33931;DHT22;20215;53.130;6.408;2022-11-15T12:34:15;14.50;90.60
33931;DHT22;20215;53.130;6.408;2022-11-15T12:36:54;14.50;90.60
33931;DHT22;20215;53.130;6.408;2022-11-15T12:39:20;14.50;90.60
33931;DHT22;20215;53.130;6.408;2022-11-15T12:52:04;14.70;90.50
33931;DHT22;20215;53.130;6.408;2022-11-15T13:02:38;14.80;90.70
33931;DHT22;20215;53.130;6.408;2022-11-15T13:13:03;14.80;90.40
33931;DHT22;20215;53.130;6.408;2022-11-15T13:15:33;14.80;90.40
33931;DHT22;20215;53.130;6.408;2022-11-15T13:18:28;14.80;90.70
33931;DHT22;20215;53.130;6.408;2022-11-15T13:20:54;14.80;90.40
33931;DHT22;20215;53.130;6.408;2022-11-15T13:23:21;14.80;90.40
33931;DHT22;20215;53.130;6.408;2022-11-15T13:28:24;14.80;90.50
33931;DHT22;20215;53.130;6.408;2022-11-15T13:30:53;14.80;90.50
33931;DHT22;20215;53.130;6.408;2022-11-15T13:33:57;14.80;90.50
33931;DHT22;20215;53.130;6.408;2022-11-15T13:36:23;14.80;90.50
33931;DHT22;20215;53.130;6.408;2022-11-15T13:41:27;14.90;90.60
33931;DHT22;20215;53.130;6.408;2022-11-15T13:43:54;14.90;90.60
33931;DHT22;20215;53.130;6.408;2022-11-15T13:46:31;14.90;90.50
33931;DHT22;20215;53.130;6.408;2022-11-15T13:49:07;14.90;90.60
33931;DHT22;20215;53.130;6.408;2022-11-15T13:51:50;14.90;90.60
33931;DHT22;20215;53.130;6.408;2022-11-15T13:56:49;14.90;90.60
33931;DHT22;20215;53.130;6.408;2022-11-15T13:59:29;14.90;90.60
33931;DHT22;20215;53.130;6.408;2022-11-15T14:01:58;14.90;90.60
33931;DHT22;20215;53.130;6.408;2022-11-15T14:04:26;14.90;90.50
33931;DHT22;20215;53.130;6.408;2022-11-15T14:06:59;14.90;90.60
33931;DHT22;20215;53.130;6.408;2022-11-15T14:09:34;14.90;90.60
33931;DHT22;20215;53.130;6.408;2022-11-15T14:12:02;14.90;90.60
33931;DHT22;20215;53.130;6.408;2022-11-15T14:14:29;14.90;90.60
33931;DHT22;20215;53.130;6.408;2022-11-15T14:16:57;14.90;90.60
33931;DHT22;20215;53.130;6.408;2022-11-15T14:22:11;14.90;90.60
33931;DHT22;20215;53.130;6.408;2022-11-15T14:24:38;15.00;90.50
33931;DHT22;20215;53.130;6.408;2022-11-15T14:27:19;15.00;90.60
33931;DHT22;20215;53.130;6.408;2022-11-15T14:29:46;14.90;90.40
33931;DHT22;20215;53.130;6.408;2022-11-15T14:32:18;14.90;90.50
33931;DHT22;20215;53.130;6.408;2022-11-15T14:34:45;14.90;90.50
33931;DHT22;20215;53.130;6.408;2022-11-15T14:37:25;14.90;90.50
33931;DHT22;20215;53.130;6.408;2022-11-15T14:39:52;14.90;90.50
33931;DHT22;20215;53.130;6.408;2022-11-15T14:42:18;14.90;90.50
33931;DHT22;20215;53.130;6.408;2022-11-15T14:44:44;14.90;90.50
33931;DHT22;20215;53.130;6.408;2022-11-15T14:47:10;14.90;90.70
33931;DHT22;20215;53.130;6.408;2022-11-15T14:49:36;14.90;90.50
33931;DHT22;20215;53.130;6.408;2022-11-15T14:52:01;14.80;90.40
33931;DHT22;20215;53.130;6.408;2022-11-15T14:54:27;14.80;90.40
33931;DHT22;20215;53.130;6.408;2022-11-15T14:56:52;14.80;90.20
33931;DHT22;20215;53.130;6.408;2022-11-15T14:59:18;14.80;90.30
33931;DHT22;20215;53.130;6.408;2022-11-15T15:01:44;14.80;90.40
33931;DHT22;20215;53.130;6.408;2022-11-15T15:04:10;14.80;90.40
33931;DHT22;20215;53.130;6.408;2022-11-15T15:06:36;14.80;90.30
33931;DHT22;20215;53.130;6.408;2022-11-15T15:09:02;14.80;90.00
33931;DHT22;20215;53.130;6.408;2022-11-15T15:11:29;14.80;89.90
33931;DHT22;20215;53.130;6.408;2022-11-15T15:13:56;14.80;89.80
33931;DHT22;20215;53.130;6.408;2022-11-15T15:16:24;14.70;90.20
33931;DHT22;20215;53.130;6.408;2022-11-15T15:18:50;14.70;90.20
33931;DHT22;20215;53.130;6.408;2022-11-15T15:21:23;14.70;89.80
33931;DHT22;20215;53.130;6.408;2022-11-15T15:23:49;14.70;89.70
33931;DHT22;20215;53.130;6.408;2022-11-15T15:26:15;14.70;90.00
33931;DHT22;20215;53.130;6.408;2022-11-15T15:28:41;14.70;89.80
33931;DHT22;20215;53.130;6.408;2022-11-15T15:31:07;14.70;90.00
33931;DHT22;20215;53.130;6.408;2022-11-15T15:33:33;14.70;90.00
33931;DHT22;20215;53.130;6.408;2022-11-15T15:35:58;14.70;90.20
33931;DHT22;20215;53.130;6.408;2022-11-15T15:38:24;14.60;90.10
33931;DHT22;20215;53.130;6.408;2022-11-15T15:40:50;14.60;90.20
33931;DHT22;20215;53.130;6.408;2022-11-15T15:43:15;14.60;90.20
33931;DHT22;20215;53.130;6.408;2022-11-15T15:45:41;14.60;90.20
33931;DHT22;20215;53.130;6.408;2022-11-15T15:48:11;14.60;90.10
33931;DHT22;20215;53.130;6.408;2022-11-15T15:50:39;14.60;90.20
33931;DHT22;20215;53.130;6.408;2022-11-15T15:53:05;14.60;90.00
33931;DHT22;20215;53.130;6.408;2022-11-15T15:55:31;14.60;90.30
33931;DHT22;20215;53.130;6.408;2022-11-15T15:57:57;14.60;90.20
33931;DHT22;20215;53.130;6.408;2022-11-15T16:00:24;14.50;90.40
33931;DHT22;20215;53.130;6.408;2022-11-15T16:02:50;14.50;90.20
33931;DHT22;20215;53.130;6.408;2022-11-15T16:05:16;14.60;90.20
33931;DHT22;20215;53.130;6.408;2022-11-15T16:07:43;14.50;90.40
33931;DHT22;20215;53.130;6.408;2022-11-15T16:10:30;14.50;90.40
33931;DHT22;20215;53.130;6.408;2022-11-15T16:12:57;14.50;90.10
33931;DHT22;20215;53.130;6.408;2022-11-15T16:15:26;14.50;90.30
33931;DHT22;20215;53.130;6.408;2022-11-15T16:18:00;14.50;90.30
33931;DHT22;20215;53.130;6.408;2022-11-15T16:20:38;14.50;90.10
33931;DHT22;20215;53.130;6.408;2022-11-15T16:23:13;14.50;90.10
33931;DHT22;20215;53.130;6.408;2022-11-15T16:30:49;14.50;90.30
33931;DHT22;20215;53.130;6.408;2022-11-15T16:33:24;14.40;90.50
33931;DHT22;20215;53.130;6.408;2022-11-15T16:35:49;14.40;90.50
33931;DHT22;20215;53.130;6.408;2022-11-15T16:38:16;14.40;90.40
33931;DHT22;20215;53.130;6.408;2022-11-15T16:40:42;14.40;90.40
33931;DHT22;20215;53.130;6.408;2022-11-15T16:43:08;14.40;90.60
33931;DHT22;20215;53.130;6.408;2022-11-15T16:45:34;14.40;90.50
33931;DHT22;20215;53.130;6.408;2022-11-15T16:48:00;14.40;90.40
33931;DHT22;20215;53.130;6.408;2022-11-15T16:50:28;14.40;90.70
33931;DHT22;20215;53.130;6.408;2022-11-15T16:52:56;14.40;90.60
33931;DHT22;20215;53.130;6.408;2022-11-15T16:55:24;14.40;90.60
33931;DHT22;20215;53.130;6.408;2022-11-15T16:57:50;14.40;90.80
33931;DHT22;20215;53.130;6.408;2022-11-15T17:00:18;14.40;90.90
33931;DHT22;20215;53.130;6.408;2022-11-15T17:02:45;14.40;90.70
33931;DHT22;20215;53.130;6.408;2022-11-15T17:05:12;14.40;90.50
33931;DHT22;20215;53.130;6.408;2022-11-15T17:07:39;14.40;90.70
33931;DHT22;20215;53.130;6.408;2022-11-15T17:10:05;14.40;90.60
33931;DHT22;20215;53.130;6.408;2022-11-15T17:12:33;14.40;90.50
33931;DHT22;20215;53.130;6.408;2022-11-15T17:14:58;14.40;90.60
33931;DHT22;20215;53.130;6.408;2022-11-15T17:17:24;14.40;90.50
33931;DHT22;20215;53.130;6.408;2022-11-15T17:19:51;14.40;90.50
33931;DHT22;20215;53.130;6.408;2022-11-15T17:22:17;14.40;90.70
33931;DHT22;20215;53.130;6.408;2022-11-15T17:24:43;14.40;90.60
33931;DHT22;20215;53.130;6.408;2022-11-15T17:27:09;14.40;90.40
33931;DHT22;20215;53.130;6.408;2022-11-15T17:29:34;14.40;90.60
33931;DHT22;20215;53.130;6.408;2022-11-15T17:32:00;14.40;90.30
33931;DHT22;20215;53.130;6.408;2022-11-15T17:34:25;14.30;90.30
33931;DHT22;20215;53.130;6.408;2022-11-15T17:36:51;14.40;90.30